sensor_id;sensor_type;location;lat;lon;timestamp;P1;durP1;ratioP1;P2;durP2;ratioP2
6864;SDS011;3471;49.678;8.388;2023-07-24T00:01:42;3.23;;;2.93;;
6864;SDS011;3471;49.678;8.388;2023-07-24T00:04:08;3.50;;;3.20;;
6864;SDS011;3471;49.678;8.388;2023-07-24T00:06:33;5.27;;;3.87;;
6864;SDS011;3471;49.678;8.388;2023-07-24T00:08:59;9.90;;;3.90;;
6864;SDS011;3471;49.678;8.388;2023-07-24T00:11:24;3.35;;;2.50;;
6864;SDS011;3471;49.678;8.388;2023-07-24T00:13:50;5.60;;;3.97;;
6864;SDS011;3471;49.678;8.388;2023-07-24T00:16:15;4.25;;;3.33;;
6864;SDS011;3471;49.678;8.388;2023-07-24T00:18:41;5.43;;;3.73;;
6864;SDS011;3471;49.678;8.388;2023-07-24T00:21:06;4.70;;;3.40;;
6864;SDS011;3471;49.678;8.388;2023-07-24T00:23:32;4.63;;;3.37;;
6864;SDS011;3471;49.678;8.388;2023-07-24T00:28:23;4.80;;;3.10;;
6864;SDS011;3471;49.678;8.388;2023-07-24T00:30:49;6.45;;;2.88;;
6864;SDS011;3471;49.678;8.388;2023-07-24T00:33:14;4.20;;;3.20;;
6864;SDS011;3471;49.678;8.388;2023-07-24T00:35:40;4.85;;;3.50;;
6864;SDS011;3471;49.678;8.388;2023-07-24T00:38:05;3.80;;;3.20;;
6864;SDS011;3471;49.678;8.388;2023-07-24T00:40:31;4.60;;;3.03;;
6864;SDS011;3471;49.678;8.388;2023-07-24T00:42:56;4.33;;;3.47;;
6864;SDS011;3471;49.678;8.388;2023-07-24T00:45:22;4.40;;;3.37;;
6864;SDS011;3471;49.678;8.388;2023-07-24T00:47:48;9.02;;;3.15;;
6864;SDS011;3471;49.678;8.388;2023-07-24T00:50:13;3.60;;;3.00;;
6864;SDS011;3471;49.678;8.388;2023-07-24T00:52:40;5.10;;;2.70;;
6864;SDS011;3471;49.678;8.388;2023-07-24T00:55:06;4.65;;;3.30;;
6864;SDS011;3471;49.678;8.388;2023-07-24T00:57:32;8.07;;;4.22;;
6864;SDS011;3471;49.678;8.388;2023-07-24T00:59:59;7.20;;;3.58;;
6864;SDS011;3471;49.678;8.388;2023-07-24T01:02:25;4.68;;;3.25;;
6864;SDS011;3471;49.678;8.388;2023-07-24T01:04:50;5.00;;;2.80;;
6864;SDS011;3471;49.678;8.388;2023-07-24T01:07:16;7.27;;;2.70;;
6864;SDS011;3471;49.678;8.388;2023-07-24T01:09:42;4.90;;;3.60;;
6864;SDS011;3471;49.678;8.388;2023-07-24T01:12:10;5.37;;;2.80;;
6864;SDS011;3471;49.678;8.388;2023-07-24T01:14:47;8.35;;;2.90;;
6864;SDS011;3471;49.678;8.388;2023-07-24T01:17:19;4.17;;;3.40;;
6864;SDS011;3471;49.678;8.388;2023-07-24T01:19:48;3.88;;;3.20;;
6864;SDS011;3471;49.678;8.388;2023-07-24T01:27:40;6.65;;;4.35;;
6864;SDS011;3471;49.678;8.388;2023-07-24T01:30:09;5.07;;;4.57;;
6864;SDS011;3471;49.678;8.388;2023-07-24T01:32:36;4.88;;;3.17;;
6864;SDS011;3471;49.678;8.388;2023-07-24T01:35:02;5.22;;;3.50;;
6864;SDS011;3471;49.678;8.388;2023-07-24T01:37:28;5.50;;;3.80;;
6864;SDS011;3471;49.678;8.388;2023-07-24T01:39:55;5.97;;;4.68;;
6864;SDS011;3471;49.678;8.388;2023-07-24T01:42:21;3.83;;;3.08;;
6864;SDS011;3471;49.678;8.388;2023-07-24T01:44:51;4.53;;;4.13;;
6864;SDS011;3471;49.678;8.388;2023-07-24T01:47:20;7.00;;;3.27;;
6864;SDS011;3471;49.678;8.388;2023-07-24T01:49:46;4.88;;;3.13;;
6864;SDS011;3471;49.678;8.388;2023-07-24T01:52:12;4.65;;;3.25;;
6864;SDS011;3471;49.678;8.388;2023-07-24T01:54:38;4.30;;;3.13;;
6864;SDS011;3471;49.678;8.388;2023-07-24T01:57:04;3.70;;;2.83;;
6864;SDS011;3471;49.678;8.388;2023-07-24T01:59:30;4.25;;;3.70;;
6864;SDS011;3471;49.678;8.388;2023-07-24T02:01:55;8.90;;;4.50;;
6864;SDS011;3471;49.678;8.388;2023-07-24T02:04:21;6.65;;;3.25;;
6864;SDS011;3471;49.678;8.388;2023-07-24T02:06:50;7.05;;;4.18;;
6864;SDS011;3471;49.678;8.388;2023-07-24T02:09:19;6.00;;;4.35;;
6864;SDS011;3471;49.678;8.388;2023-07-24T02:11:45;6.00;;;4.60;;
6864;SDS011;3471;49.678;8.388;2023-07-24T02:14:11;10.52;;;4.20;;
6864;SDS011;3471;49.678;8.388;2023-07-24T02:16:38;6.22;;;4.05;;
6864;SDS011;3471;49.678;8.388;2023-07-24T02:19:04;6.35;;;4.05;;
6864;SDS011;3471;49.678;8.388;2023-07-24T02:21:30;4.67;;;3.27;;
6864;SDS011;3471;49.678;8.388;2023-07-24T02:23:56;4.93;;;4.40;;
6864;SDS011;3471;49.678;8.388;2023-07-24T02:26:21;6.13;;;4.80;;
6864;SDS011;3471;49.678;8.388;2023-07-24T02:28:47;6.80;;;4.63;;
6864;SDS011;3471;49.678;8.388;2023-07-24T02:31:12;7.27;;;4.90;;
6864;SDS011;3471;49.678;8.388;2023-07-24T02:33:38;6.87;;;4.13;;
6864;SDS011;3471;49.678;8.388;2023-07-24T02:36:04;6.17;;;4.60;;
6864;SDS011;3471;49.678;8.388;2023-07-24T02:38:29;5.95;;;4.72;;
6864;SDS011;3471;49.678;8.388;2023-07-24T02:40:55;7.18;;;4.50;;
6864;SDS011;3471;49.678;8.388;2023-07-24T02:43:20;7.03;;;5.55;;
6864;SDS011;3471;49.678;8.388;2023-07-24T02:45:46;5.93;;;4.88;;
6864;SDS011;3471;49.678;8.388;2023-07-24T02:48:11;6.95;;;4.82;;
6864;SDS011;3471;49.678;8.388;2023-07-24T02:50:37;6.57;;;5.22;;
6864;SDS011;3471;49.678;8.388;2023-07-24T02:53:03;7.30;;;5.03;;
6864;SDS011;3471;49.678;8.388;2023-07-24T02:55:29;5.88;;;5.25;;
6864;SDS011;3471;49.678;8.388;2023-07-24T02:57:55;6.80;;;4.27;;
6864;SDS011;3471;49.678;8.388;2023-07-24T03:00:20;8.30;;;5.33;;
6864;SDS011;3471;49.678;8.388;2023-07-24T03:02:46;4.30;;;3.90;;
6864;SDS011;3471;49.678;8.388;2023-07-24T03:05:11;6.17;;;4.70;;
6864;SDS011;3471;49.678;8.388;2023-07-24T03:07:37;7.23;;;5.80;;
6864;SDS011;3471;49.678;8.388;2023-07-24T03:10:03;5.83;;;5.23;;
6864;SDS011;3471;49.678;8.388;2023-07-24T03:12:28;7.43;;;5.60;;
6864;SDS011;3471;49.678;8.388;2023-07-24T03:14:54;5.00;;;4.50;;
6864;SDS011;3471;49.678;8.388;2023-07-24T03:17:19;11.20;;;5.07;;
6864;SDS011;3471;49.678;8.388;2023-07-24T03:19:45;7.30;;;5.60;;
6864;SDS011;3471;49.678;8.388;2023-07-24T03:22:13;7.03;;;5.45;;
6864;SDS011;3471;49.678;8.388;2023-07-24T03:24:38;8.10;;;4.20;;
6864;SDS011;3471;49.678;8.388;2023-07-24T03:27:04;7.10;;;4.93;;
6864;SDS011;3471;49.678;8.388;2023-07-24T03:29:29;7.95;;;4.82;;
6864;SDS011;3471;49.678;8.388;2023-07-24T03:31:55;9.10;;;4.82;;
6864;SDS011;3471;49.678;8.388;2023-07-24T03:34:21;6.18;;;4.85;;
6864;SDS011;3471;49.678;8.388;2023-07-24T03:36:46;8.90;;;6.25;;
6864;SDS011;3471;49.678;8.388;2023-07-24T03:39:12;6.20;;;3.22;;
6864;SDS011;3471;49.678;8.388;2023-07-24T03:41:41;9.07;;;5.40;;
6864;SDS011;3471;49.678;8.388;2023-07-24T03:44:07;6.38;;;4.07;;
6864;SDS011;3471;49.678;8.388;2023-07-24T03:46:33;7.88;;;4.82;;
6864;SDS011;3471;49.678;8.388;2023-07-24T03:48:59;6.47;;;5.13;;
6864;SDS011;3471;49.678;8.388;2023-07-24T03:51:24;8.50;;;4.87;;
6864;SDS011;3471;49.678;8.388;2023-07-24T03:53:50;7.20;;;4.73;;
6864;SDS011;3471;49.678;8.388;2023-07-24T03:56:15;7.20;;;4.97;;
6864;SDS011;3471;49.678;8.388;2023-07-24T03:58:41;7.57;;;5.47;;
6864;SDS011;3471;49.678;8.388;2023-07-24T04:01:07;7.83;;;6.17;;
6864;SDS011;3471;49.678;8.388;2023-07-24T04:03:33;13.32;;;7.20;;
6864;SDS011;3471;49.678;8.388;2023-07-24T04:05:59;11.77;;;5.90;;
6864;SDS011;3471;49.678;8.388;2023-07-24T04:08:25;13.90;;;4.90;;
6864;SDS011;3471;49.678;8.388;2023-07-24T04:10:50;9.63;;;5.50;;
6864;SDS011;3471;49.678;8.388;2023-07-24T04:13:17;9.70;;;7.07;;
6864;SDS011;3471;49.678;8.388;2023-07-24T04:15:42;8.07;;;4.82;;
6864;SDS011;3471;49.678;8.388;2023-07-24T04:18:09;8.43;;;5.40;;
6864;SDS011;3471;49.678;8.388;2023-07-24T04:20:35;9.30;;;6.80;;
6864;SDS011;3471;49.678;8.388;2023-07-24T04:23:00;7.68;;;5.50;;
6864;SDS011;3471;49.678;8.388;2023-07-24T04:25:26;10.90;;;7.23;;
6864;SDS011;3471;49.678;8.388;2023-07-24T04:27:52;8.30;;;6.07;;
6864;SDS011;3471;49.678;8.388;2023-07-24T04:30:17;12.43;;;6.35;;
6864;SDS011;3471;49.678;8.388;2023-07-24T04:32:43;9.30;;;6.22;;
6864;SDS011;3471;49.678;8.388;2023-07-24T04:35:09;15.60;;;6.85;;
6864;SDS011;3471;49.678;8.388;2023-07-24T04:37:34;7.53;;;6.38;;
6864;SDS011;3471;49.678;8.388;2023-07-24T04:40:00;12.77;;;6.50;;
6864;SDS011;3471;49.678;8.388;2023-07-24T04:42:25;9.45;;;5.88;;
6864;SDS011;3471;49.678;8.388;2023-07-24T04:44:51;11.18;;;7.00;;
6864;SDS011;3471;49.678;8.388;2023-07-24T04:47:17;7.70;;;5.70;;
6864;SDS011;3471;49.678;8.388;2023-07-24T04:49:42;10.75;;;6.43;;
6864;SDS011;3471;49.678;8.388;2023-07-24T04:52:08;9.07;;;5.68;;
6864;SDS011;3471;49.678;8.388;2023-07-24T04:54:33;11.70;;;7.75;;
6864;SDS011;3471;49.678;8.388;2023-07-24T04:56:59;7.75;;;5.80;;
6864;SDS011;3471;49.678;8.388;2023-07-24T04:59:24;12.70;;;7.83;;
6864;SDS011;3471;49.678;8.388;2023-07-24T05:01:50;11.10;;;6.87;;
6864;SDS011;3471;49.678;8.388;2023-07-24T05:04:16;8.30;;;5.80;;
6864;SDS011;3471;49.678;8.388;2023-07-24T05:06:41;9.03;;;6.20;;
6864;SDS011;3471;49.678;8.388;2023-07-24T05:09:07;13.33;;;8.23;;
6864;SDS011;3471;49.678;8.388;2023-07-24T05:11:32;9.43;;;5.90;;
6864;SDS011;3471;49.678;8.388;2023-07-24T05:13:58;8.60;;;5.15;;
6864;SDS011;3471;49.678;8.388;2023-07-24T05:16:23;9.60;;;7.32;;
6864;SDS011;3471;49.678;8.388;2023-07-24T05:18:49;7.47;;;5.85;;
6864;SDS011;3471;49.678;8.388;2023-07-24T05:21:15;9.85;;;7.15;;
6864;SDS011;3471;49.678;8.388;2023-07-24T05:23:40;6.63;;;5.00;;
6864;SDS011;3471;49.678;8.388;2023-07-24T05:26:06;7.13;;;6.00;;
6864;SDS011;3471;49.678;8.388;2023-07-24T05:28:32;9.40;;;6.40;;
6864;SDS011;3471;49.678;8.388;2023-07-24T05:31:01;7.20;;;5.78;;
6864;SDS011;3471;49.678;8.388;2023-07-24T05:33:27;8.15;;;6.38;;
6864;SDS011;3471;49.678;8.388;2023-07-24T05:36:00;11.65;;;6.07;;
6864;SDS011;3471;49.678;8.388;2023-07-24T05:38:27;9.38;;;7.22;;
6864;SDS011;3471;49.678;8.388;2023-07-24T05:40:59;8.77;;;6.40;;
6864;SDS011;3471;49.678;8.388;2023-07-24T05:43:27;8.30;;;6.50;;
6864;SDS011;3471;49.678;8.388;2023-07-24T05:45:53;8.67;;;5.43;;
6864;SDS011;3471;49.678;8.388;2023-07-24T05:48:20;7.18;;;6.00;;
6864;SDS011;3471;49.678;8.388;2023-07-24T05:50:46;8.10;;;5.80;;
6864;SDS011;3471;49.678;8.388;2023-07-24T05:53:12;10.80;;;6.35;;
6864;SDS011;3471;49.678;8.388;2023-07-24T05:55:38;14.55;;;7.40;;
6864;SDS011;3471;49.678;8.388;2023-07-24T05:58:04;9.98;;;6.75;;
6864;SDS011;3471;49.678;8.388;2023-07-24T06:00:29;14.90;;;7.30;;
6864;SDS011;3471;49.678;8.388;2023-07-24T06:02:55;12.43;;;7.57;;
6864;SDS011;3471;49.678;8.388;2023-07-24T06:05:20;9.40;;;6.90;;
6864;SDS011;3471;49.678;8.388;2023-07-24T06:07:46;8.63;;;6.27;;
6864;SDS011;3471;49.678;8.388;2023-07-24T06:10:12;11.23;;;7.27;;
6864;SDS011;3471;49.678;8.388;2023-07-24T06:12:38;8.85;;;6.43;;
6864;SDS011;3471;49.678;8.388;2023-07-24T06:15:04;10.65;;;7.00;;
6864;SDS011;3471;49.678;8.388;2023-07-24T06:17:30;11.60;;;6.90;;
6864;SDS011;3471;49.678;8.388;2023-07-24T06:19:56;10.77;;;6.35;;
6864;SDS011;3471;49.678;8.388;2023-07-24T06:22:22;11.93;;;6.40;;
6864;SDS011;3471;49.678;8.388;2023-07-24T06:24:48;9.20;;;6.25;;
6864;SDS011;3471;49.678;8.388;2023-07-24T06:27:13;12.07;;;6.53;;
6864;SDS011;3471;49.678;8.388;2023-07-24T06:29:39;14.67;;;8.10;;
6864;SDS011;3471;49.678;8.388;2023-07-24T06:32:05;14.30;;;7.27;;
6864;SDS011;3471;49.678;8.388;2023-07-24T06:34:31;7.37;;;5.90;;
6864;SDS011;3471;49.678;8.388;2023-07-24T06:36:56;9.73;;;7.17;;
6864;SDS011;3471;49.678;8.388;2023-07-24T06:39:22;11.47;;;7.73;;
6864;SDS011;3471;49.678;8.388;2023-07-24T06:41:47;11.77;;;7.03;;
6864;SDS011;3471;49.678;8.388;2023-07-24T06:44:13;18.05;;;7.60;;
6864;SDS011;3471;49.678;8.388;2023-07-24T06:46:39;10.20;;;7.32;;
6864;SDS011;3471;49.678;8.388;2023-07-24T06:49:04;10.75;;;7.00;;
6864;SDS011;3471;49.678;8.388;2023-07-24T06:51:30;11.27;;;6.80;;
6864;SDS011;3471;49.678;8.388;2023-07-24T06:53:55;7.33;;;6.10;;
6864;SDS011;3471;49.678;8.388;2023-07-24T06:56:21;13.20;;;6.53;;
6864;SDS011;3471;49.678;8.388;2023-07-24T06:58:46;12.13;;;7.10;;
6864;SDS011;3471;49.678;8.388;2023-07-24T07:01:12;11.00;;;7.07;;
6864;SDS011;3471;49.678;8.388;2023-07-24T07:03:38;11.02;;;7.13;;
6864;SDS011;3471;49.678;8.388;2023-07-24T07:06:03;12.27;;;8.95;;
6864;SDS011;3471;49.678;8.388;2023-07-24T07:08:29;15.82;;;7.85;;
6864;SDS011;3471;49.678;8.388;2023-07-24T07:10:56;11.07;;;8.38;;
6864;SDS011;3471;49.678;8.388;2023-07-24T07:13:22;11.20;;;7.07;;
6864;SDS011;3471;49.678;8.388;2023-07-24T07:15:47;13.32;;;7.95;;
6864;SDS011;3471;49.678;8.388;2023-07-24T07:18:13;9.40;;;6.93;;
6864;SDS011;3471;49.678;8.388;2023-07-24T07:20:44;13.25;;;6.93;;
6864;SDS011;3471;49.678;8.388;2023-07-24T07:23:13;12.65;;;6.85;;
6864;SDS011;3471;49.678;8.388;2023-07-24T07:25:38;11.82;;;7.10;;
6864;SDS011;3471;49.678;8.388;2023-07-24T07:28:04;17.00;;;8.40;;
6864;SDS011;3471;49.678;8.388;2023-07-24T07:30:30;11.93;;;6.30;;
6864;SDS011;3471;49.678;8.388;2023-07-24T07:32:55;9.83;;;7.07;;
6864;SDS011;3471;49.678;8.388;2023-07-24T07:35:21;9.20;;;5.80;;
6864;SDS011;3471;49.678;8.388;2023-07-24T07:37:47;9.03;;;7.07;;
6864;SDS011;3471;49.678;8.388;2023-07-24T07:40:12;12.52;;;5.68;;
6864;SDS011;3471;49.678;8.388;2023-07-24T07:42:38;10.57;;;7.55;;
6864;SDS011;3471;49.678;8.388;2023-07-24T07:45:04;10.53;;;6.77;;
6864;SDS011;3471;49.678;8.388;2023-07-24T07:47:30;11.23;;;5.70;;
6864;SDS011;3471;49.678;8.388;2023-07-24T07:49:55;8.95;;;6.68;;
6864;SDS011;3471;49.678;8.388;2023-07-24T07:52:21;12.02;;;6.97;;
6864;SDS011;3471;49.678;8.388;2023-07-24T07:54:47;11.00;;;8.13;;
6864;SDS011;3471;49.678;8.388;2023-07-24T07:57:14;7.57;;;6.68;;
6864;SDS011;3471;49.678;8.388;2023-07-24T07:59:39;11.02;;;6.18;;
6864;SDS011;3471;49.678;8.388;2023-07-24T08:02:05;6.30;;;5.70;;
6864;SDS011;3471;49.678;8.388;2023-07-24T08:04:31;6.63;;;5.07;;
6864;SDS011;3471;49.678;8.388;2023-07-24T08:06:57;13.68;;;5.80;;
6864;SDS011;3471;49.678;8.388;2023-07-24T08:09:22;6.95;;;5.07;;
6864;SDS011;3471;49.678;8.388;2023-07-24T08:11:49;12.00;;;5.63;;
6864;SDS011;3471;49.678;8.388;2023-07-24T08:14:16;12.73;;;6.60;;
6864;SDS011;3471;49.678;8.388;2023-07-24T08:16:42;15.17;;;6.80;;
6864;SDS011;3471;49.678;8.388;2023-07-24T08:19:07;10.50;;;6.20;;
6864;SDS011;3471;49.678;8.388;2023-07-24T08:21:33;7.23;;;5.47;;
6864;SDS011;3471;49.678;8.388;2023-07-24T08:23:58;13.23;;;6.50;;
6864;SDS011;3471;49.678;8.388;2023-07-24T08:26:25;10.07;;;6.77;;
6864;SDS011;3471;49.678;8.388;2023-07-24T08:28:51;9.75;;;6.55;;
6864;SDS011;3471;49.678;8.388;2023-07-24T08:31:17;9.45;;;6.53;;
6864;SDS011;3471;49.678;8.388;2023-07-24T08:33:42;6.85;;;5.22;;
6864;SDS011;3471;49.678;8.388;2023-07-24T08:36:08;8.75;;;6.20;;
6864;SDS011;3471;49.678;8.388;2023-07-24T08:38:37;7.25;;;5.95;;
6864;SDS011;3471;49.678;8.388;2023-07-24T08:41:06;10.48;;;7.22;;
6864;SDS011;3471;49.678;8.388;2023-07-24T08:43:34;13.65;;;5.95;;
6864;SDS011;3471;49.678;8.388;2023-07-24T08:46:01;10.93;;;6.15;;
6864;SDS011;3471;49.678;8.388;2023-07-24T08:48:31;15.93;;;6.65;;
6864;SDS011;3471;49.678;8.388;2023-07-24T08:51:00;14.23;;;8.23;;
6864;SDS011;3471;49.678;8.388;2023-07-24T08:53:30;10.77;;;6.10;;
6864;SDS011;3471;49.678;8.388;2023-07-24T08:56:00;7.65;;;5.50;;
6864;SDS011;3471;49.678;8.388;2023-07-24T08:58:31;8.00;;;6.88;;
6864;SDS011;3471;49.678;8.388;2023-07-24T09:00:58;8.60;;;6.27;;
6864;SDS011;3471;49.678;8.388;2023-07-24T09:03:24;7.38;;;5.68;;
6864;SDS011;3471;49.678;8.388;2023-07-24T09:05:50;7.40;;;6.40;;
6864;SDS011;3471;49.678;8.388;2023-07-24T09:08:16;10.18;;;6.47;;
6864;SDS011;3471;49.678;8.388;2023-07-24T09:10:42;13.32;;;6.82;;
6864;SDS011;3471;49.678;8.388;2023-07-24T09:13:08;11.10;;;6.13;;
6864;SDS011;3471;49.678;8.388;2023-07-24T09:15:43;8.68;;;6.07;;
6864;SDS011;3471;49.678;8.388;2023-07-24T09:18:09;10.40;;;6.75;;
6864;SDS011;3471;49.678;8.388;2023-07-24T09:20:39;20.10;;;7.00;;
6864;SDS011;3471;49.678;8.388;2023-07-24T09:23:06;9.68;;;6.50;;
6864;SDS011;3471;49.678;8.388;2023-07-24T09:25:34;19.65;;;6.80;;
6864;SDS011;3471;49.678;8.388;2023-07-24T09:28:01;8.82;;;5.60;;
6864;SDS011;3471;49.678;8.388;2023-07-24T09:30:41;6.68;;;5.90;;
6864;SDS011;3471;49.678;8.388;2023-07-24T09:33:16;8.33;;;6.20;;
6864;SDS011;3471;49.678;8.388;2023-07-24T09:35:41;15.03;;;6.90;;
6864;SDS011;3471;49.678;8.388;2023-07-24T09:38:08;11.00;;;6.37;;
6864;SDS011;3471;49.678;8.388;2023-07-24T09:43:20;16.10;;;7.97;;
6864;SDS011;3471;49.678;8.388;2023-07-24T09:45:47;9.70;;;5.60;;
6864;SDS011;3471;49.678;8.388;2023-07-24T09:48:14;10.18;;;6.13;;
6864;SDS011;3471;49.678;8.388;2023-07-24T09:50:41;10.73;;;6.60;;
6864;SDS011;3471;49.678;8.388;2023-07-24T09:53:14;7.63;;;6.82;;
6864;SDS011;3471;49.678;8.388;2023-07-24T09:56:02;10.63;;;6.80;;
6864;SDS011;3471;49.678;8.388;2023-07-24T09:58:33;5.63;;;5.03;;
6864;SDS011;3471;49.678;8.388;2023-07-24T10:01:02;7.05;;;6.15;;
6864;SDS011;3471;49.678;8.388;2023-07-24T10:03:32;7.03;;;6.32;;
6864;SDS011;3471;49.678;8.388;2023-07-24T10:05:59;5.45;;;4.95;;
6864;SDS011;3471;49.678;8.388;2023-07-24T10:08:25;7.60;;;6.20;;
6864;SDS011;3471;49.678;8.388;2023-07-24T10:10:52;6.55;;;5.15;;
6864;SDS011;3471;49.678;8.388;2023-07-24T10:13:18;8.30;;;6.20;;
6864;SDS011;3471;49.678;8.388;2023-07-24T10:15:45;7.03;;;4.93;;
6864;SDS011;3471;49.678;8.388;2023-07-24T10:18:12;6.13;;;4.40;;
6864;SDS011;3471;49.678;8.388;2023-07-24T10:20:41;7.72;;;4.75;;
6864;SDS011;3471;49.678;8.388;2023-07-24T10:23:10;10.75;;;4.60;;
6864;SDS011;3471;49.678;8.388;2023-07-24T10:25:40;12.00;;;4.00;;
6864;SDS011;3471;49.678;8.388;2023-07-24T10:28:10;5.97;;;4.53;;
6864;SDS011;3471;49.678;8.388;2023-07-24T10:30:40;4.53;;;3.25;;
6864;SDS011;3471;49.678;8.388;2023-07-24T10:33:13;6.38;;;4.88;;
6864;SDS011;3471;49.678;8.388;2023-07-24T10:35:44;5.60;;;3.60;;
6864;SDS011;3471;49.678;8.388;2023-07-24T10:38:12;5.43;;;4.40;;
6864;SDS011;3471;49.678;8.388;2023-07-24T10:40:40;7.47;;;4.82;;
6864;SDS011;3471;49.678;8.388;2023-07-24T10:43:08;9.93;;;5.93;;
6864;SDS011;3471;49.678;8.388;2023-07-24T10:45:38;9.98;;;5.65;;
6864;SDS011;3471;49.678;8.388;2023-07-24T10:48:05;8.85;;;5.18;;
6864;SDS011;3471;49.678;8.388;2023-07-24T10:50:38;4.97;;;4.47;;
6864;SDS011;3471;49.678;8.388;2023-07-24T10:53:04;6.85;;;4.80;;
6864;SDS011;3471;49.678;8.388;2023-07-24T10:55:30;5.07;;;4.55;;
6864;SDS011;3471;49.678;8.388;2023-07-24T10:57:55;6.00;;;4.30;;
6864;SDS011;3471;49.678;8.388;2023-07-24T11:00:21;4.03;;;3.60;;
6864;SDS011;3471;49.678;8.388;2023-07-24T11:02:47;9.70;;;5.33;;
6864;SDS011;3471;49.678;8.388;2023-07-24T11:05:13;6.03;;;4.53;;
6864;SDS011;3471;49.678;8.388;2023-07-24T11:07:39;8.15;;;5.10;;
6864;SDS011;3471;49.678;8.388;2023-07-24T11:10:14;7.50;;;4.87;;
6864;SDS011;3471;49.678;8.388;2023-07-24T11:12:43;6.45;;;5.20;;
6864;SDS011;3471;49.678;8.388;2023-07-24T11:15:09;8.55;;;5.47;;
6864;SDS011;3471;49.678;8.388;2023-07-24T11:17:37;6.93;;;5.57;;
6864;SDS011;3471;49.678;8.388;2023-07-24T11:20:09;7.90;;;4.40;;
6864;SDS011;3471;49.678;8.388;2023-07-24T11:22:37;7.55;;;4.88;;
6864;SDS011;3471;49.678;8.388;2023-07-24T11:25:04;7.40;;;5.85;;
6864;SDS011;3471;49.678;8.388;2023-07-24T11:27:31;6.18;;;4.22;;
6864;SDS011;3471;49.678;8.388;2023-07-24T11:29:57;7.45;;;4.80;;
6864;SDS011;3471;49.678;8.388;2023-07-24T11:32:22;8.18;;;4.95;;
6864;SDS011;3471;49.678;8.388;2023-07-24T11:34:48;5.10;;;4.40;;
6864;SDS011;3471;49.678;8.388;2023-07-24T11:37:15;5.82;;;5.30;;
6864;SDS011;3471;49.678;8.388;2023-07-24T11:39:41;6.82;;;4.97;;
6864;SDS011;3471;49.678;8.388;2023-07-24T11:42:07;6.70;;;4.20;;
6864;SDS011;3471;49.678;8.388;2023-07-24T11:44:33;5.50;;;4.80;;
6864;SDS011;3471;49.678;8.388;2023-07-24T11:49:28;6.03;;;5.28;;
6864;SDS011;3471;49.678;8.388;2023-07-24T11:52:00;9.55;;;5.70;;
6864;SDS011;3471;49.678;8.388;2023-07-24T11:54:29;6.47;;;5.07;;
6864;SDS011;3471;49.678;8.388;2023-07-24T11:56:55;6.30;;;5.35;;
6864;SDS011;3471;49.678;8.388;2023-07-24T11:59:21;9.63;;;5.07;;
6864;SDS011;3471;49.678;8.388;2023-07-24T12:01:47;4.18;;;3.60;;
6864;SDS011;3471;49.678;8.388;2023-07-24T12:04:13;7.83;;;5.07;;
6864;SDS011;3471;49.678;8.388;2023-07-24T12:06:42;6.53;;;4.37;;
6864;SDS011;3471;49.678;8.388;2023-07-24T12:09:08;6.15;;;5.03;;
6864;SDS011;3471;49.678;8.388;2023-07-24T12:11:44;13.13;;;4.85;;
6864;SDS011;3471;49.678;8.388;2023-07-24T12:14:11;5.53;;;4.82;;
6864;SDS011;3471;49.678;8.388;2023-07-24T12:16:38;5.20;;;4.28;;
6864;SDS011;3471;49.678;8.388;2023-07-24T12:19:03;5.70;;;4.13;;
6864;SDS011;3471;49.678;8.388;2023-07-24T12:21:29;7.65;;;5.20;;
6864;SDS011;3471;49.678;8.388;2023-07-24T12:23:55;8.40;;;4.53;;
6864;SDS011;3471;49.678;8.388;2023-07-24T12:26:20;4.90;;;4.50;;
6864;SDS011;3471;49.678;8.388;2023-07-24T12:28:47;9.35;;;5.50;;
6864;SDS011;3471;49.678;8.388;2023-07-24T12:31:12;9.32;;;5.82;;
6864;SDS011;3471;49.678;8.388;2023-07-24T12:33:38;8.43;;;5.80;;
6864;SDS011;3471;49.678;8.388;2023-07-24T12:36:03;9.57;;;4.97;;
6864;SDS011;3471;49.678;8.388;2023-07-24T12:38:29;6.55;;;5.35;;
6864;SDS011;3471;49.678;8.388;2023-07-24T12:40:55;6.93;;;5.72;;
6864;SDS011;3471;49.678;8.388;2023-07-24T12:43:21;10.20;;;6.15;;
6864;SDS011;3471;49.678;8.388;2023-07-24T12:45:46;7.90;;;5.57;;
6864;SDS011;3471;49.678;8.388;2023-07-24T12:48:12;7.00;;;5.20;;
6864;SDS011;3471;49.678;8.388;2023-07-24T12:50:38;14.33;;;5.33;;
6864;SDS011;3471;49.678;8.388;2023-07-24T12:53:03;9.25;;;6.38;;
6864;SDS011;3471;49.678;8.388;2023-07-24T12:55:29;9.77;;;7.00;;
6864;SDS011;3471;49.678;8.388;2023-07-24T12:57:54;6.55;;;5.40;;
6864;SDS011;3471;49.678;8.388;2023-07-24T13:00:21;7.15;;;5.22;;
6864;SDS011;3471;49.678;8.388;2023-07-24T13:02:47;9.43;;;6.40;;
6864;SDS011;3471;49.678;8.388;2023-07-24T13:05:12;9.47;;;6.20;;
6864;SDS011;3471;49.678;8.388;2023-07-24T13:07:38;6.72;;;6.03;;
6864;SDS011;3471;49.678;8.388;2023-07-24T13:10:03;7.25;;;5.63;;
6864;SDS011;3471;49.678;8.388;2023-07-24T13:12:29;8.15;;;5.80;;
6864;SDS011;3471;49.678;8.388;2023-07-24T13:14:55;22.77;;;20.65;;
6864;SDS011;3471;49.678;8.388;2023-07-24T13:17:21;9.20;;;6.73;;
6864;SDS011;3471;49.678;8.388;2023-07-24T13:19:46;8.57;;;5.60;;
6864;SDS011;3471;49.678;8.388;2023-07-24T13:22:12;14.18;;;7.20;;
6864;SDS011;3471;49.678;8.388;2023-07-24T13:24:38;7.80;;;6.90;;
6864;SDS011;3471;49.678;8.388;2023-07-24T13:27:03;7.30;;;6.43;;
6864;SDS011;3471;49.678;8.388;2023-07-24T13:29:29;8.20;;;6.73;;
6864;SDS011;3471;49.678;8.388;2023-07-24T13:31:56;9.40;;;7.28;;
6864;SDS011;3471;49.678;8.388;2023-07-24T13:34:24;7.82;;;6.05;;
6864;SDS011;3471;49.678;8.388;2023-07-24T13:36:50;7.22;;;6.05;;
6864;SDS011;3471;49.678;8.388;2023-07-24T13:39:15;12.43;;;7.40;;
6864;SDS011;3471;49.678;8.388;2023-07-24T13:41:42;6.90;;;5.57;;
6864;SDS011;3471;49.678;8.388;2023-07-24T13:44:07;9.35;;;7.05;;
6864;SDS011;3471;49.678;8.388;2023-07-24T13:46:33;7.78;;;6.90;;
6864;SDS011;3471;49.678;8.388;2023-07-24T13:48:59;8.00;;;5.50;;
6864;SDS011;3471;49.678;8.388;2023-07-24T13:51:24;10.60;;;7.00;;
6864;SDS011;3471;49.678;8.388;2023-07-24T13:53:50;10.90;;;6.53;;
6864;SDS011;3471;49.678;8.388;2023-07-24T13:56:17;7.95;;;6.40;;
6864;SDS011;3471;49.678;8.388;2023-07-24T13:58:43;7.88;;;5.38;;
6864;SDS011;3471;49.678;8.388;2023-07-24T14:01:09;5.47;;;4.55;;
6864;SDS011;3471;49.678;8.388;2023-07-24T14:03:35;7.05;;;3.58;;
6864;SDS011;3471;49.678;8.388;2023-07-24T14:06:01;9.15;;;4.68;;
6864;SDS011;3471;49.678;8.388;2023-07-24T14:08:27;4.80;;;4.40;;
6864;SDS011;3471;49.678;8.388;2023-07-24T14:10:52;6.30;;;4.50;;
6864;SDS011;3471;49.678;8.388;2023-07-24T14:13:18;7.10;;;5.30;;
6864;SDS011;3471;49.678;8.388;2023-07-24T14:15:44;7.38;;;5.20;;
6864;SDS011;3471;49.678;8.388;2023-07-24T14:18:09;6.78;;;5.15;;
6864;SDS011;3471;49.678;8.388;2023-07-24T14:20:35;8.97;;;5.67;;
6864;SDS011;3471;49.678;8.388;2023-07-24T14:23:02;7.95;;;5.50;;
6864;SDS011;3471;49.678;8.388;2023-07-24T14:25:28;6.43;;;5.43;;
6864;SDS011;3471;49.678;8.388;2023-07-24T14:27:53;6.50;;;4.47;;
6864;SDS011;3471;49.678;8.388;2023-07-24T14:30:19;5.90;;;4.00;;
6864;SDS011;3471;49.678;8.388;2023-07-24T14:32:45;6.90;;;4.53;;
6864;SDS011;3471;49.678;8.388;2023-07-24T14:35:10;3.45;;;3.15;;
6864;SDS011;3471;49.678;8.388;2023-07-24T14:37:36;5.80;;;3.77;;
6864;SDS011;3471;49.678;8.388;2023-07-24T14:40:02;2.90;;;2.40;;
6864;SDS011;3471;49.678;8.388;2023-07-24T14:42:27;7.55;;;4.15;;
6864;SDS011;3471;49.678;8.388;2023-07-24T14:44:53;12.47;;;3.73;;
6864;SDS011;3471;49.678;8.388;2023-07-24T14:47:18;3.83;;;2.53;;
6864;SDS011;3471;49.678;8.388;2023-07-24T14:49:44;5.27;;;3.33;;
6864;SDS011;3471;49.678;8.388;2023-07-24T14:52:10;5.70;;;2.30;;
6864;SDS011;3471;49.678;8.388;2023-07-24T14:54:35;3.47;;;2.40;;
6864;SDS011;3471;49.678;8.388;2023-07-24T14:57:01;3.90;;;2.97;;
6864;SDS011;3471;49.678;8.388;2023-07-24T14:59:27;2.90;;;2.60;;
6864;SDS011;3471;49.678;8.388;2023-07-24T15:01:53;6.90;;;3.10;;
6864;SDS011;3471;49.678;8.388;2023-07-24T15:04:19;3.28;;;2.78;;
6864;SDS011;3471;49.678;8.388;2023-07-24T15:06:46;3.40;;;3.10;;
6864;SDS011;3471;49.678;8.388;2023-07-24T15:09:12;3.80;;;3.20;;
6864;SDS011;3471;49.678;8.388;2023-07-24T15:11:37;6.87;;;4.43;;
6864;SDS011;3471;49.678;8.388;2023-07-24T15:14:03;7.90;;;4.97;;
6864;SDS011;3471;49.678;8.388;2023-07-24T15:16:28;4.45;;;3.85;;
6864;SDS011;3471;49.678;8.388;2023-07-24T15:18:54;8.20;;;4.50;;
6864;SDS011;3471;49.678;8.388;2023-07-24T15:21:19;6.53;;;4.95;;